createdAt,value
2022-10-23T00:01:42.248Z,13.75
2022-10-23T00:06:42.193Z,13.75
2022-10-23T00:11:42.102Z,13.75
2022-10-23T00:16:42.151Z,13.69
2022-10-23T00:21:42.083Z,13.66
2022-10-23T00:26:41.932Z,13.60
2022-10-23T00:31:41.921Z,13.62
2022-10-23T00:36:41.840Z,13.64
2022-10-23T00:41:41.807Z,13.60
2022-10-23T00:46:41.768Z,13.55
2022-10-23T00:51:41.692Z,13.51
2022-10-23T00:56:41.715Z,13.45
2022-10-23T01:01:41.721Z,13.49
2022-10-23T01:06:41.578Z,13.25
2022-10-23T01:11:41.514Z,12.97
2022-10-23T01:16:50.333Z,13.01
2022-10-23T01:21:41.349Z,12.89
2022-10-23T01:26:41.316Z,13.04
2022-10-23T01:31:41.236Z,13.17
2022-10-23T01:36:41.186Z,13.39
2022-10-23T01:41:44.546Z,13.52
2022-10-23T01:46:41.218Z,13.64
2022-10-23T01:51:41.185Z,13.75
2022-10-23T01:56:40.978Z,13.77
2022-10-23T02:01:41.122Z,13.78
2022-10-23T02:06:40.954Z,13.81
2022-10-23T02:11:40.848Z,13.89
2022-10-23T02:16:40.778Z,13.91
2022-10-23T02:21:40.696Z,13.71
2022-10-23T02:26:40.776Z,13.85
2022-10-23T02:31:40.677Z,14.06
2022-10-23T02:36:40.705Z,14.14
2022-10-23T02:41:41.566Z,14.20
2022-10-23T02:46:40.604Z,14.17
2022-10-23T02:51:40.397Z,14.22
2022-10-23T02:56:40.331Z,14.15
2022-10-23T03:01:40.369Z,14.22
2022-10-23T03:06:40.211Z,14.21
2022-10-23T03:11:40.305Z,14.10
2022-10-23T03:16:40.229Z,13.99
2022-10-23T03:21:40.157Z,13.92
2022-10-23T03:26:40.090Z,13.92
2022-10-23T03:31:40.035Z,14.09
2022-10-23T03:36:39.953Z,14.29
2022-10-23T03:41:39.872Z,14.61
2022-10-23T03:46:39.830Z,14.75
2022-10-23T03:51:39.764Z,14.77
2022-10-23T03:56:39.688Z,14.86
2022-10-23T04:01:39.840Z,14.92
2022-10-23T04:06:39.689Z,14.96
2022-10-23T04:11:39.586Z,14.92
2022-10-23T04:16:39.508Z,14.95
2022-10-23T04:21:39.448Z,15.19
2022-10-23T04:26:39.399Z,15.46
2022-10-23T04:31:39.336Z,15.19
2022-10-23T04:36:39.274Z,15.29
2022-10-23T04:41:39.204Z,15.25
2022-10-23T04:46:39.237Z,15.03
2022-10-23T04:51:39.158Z,15.14
2022-10-23T04:56:39.083Z,15.20
2022-10-23T05:01:39.212Z,15.09
2022-10-23T05:06:39.076Z,15.31
2022-10-23T05:11:38.990Z,14.99
2022-10-23T05:16:38.852Z,14.96
2022-10-23T05:21:38.806Z,15.03
2022-10-23T05:26:38.747Z,14.94
2022-10-23T05:31:38.692Z,14.96
2022-10-23T05:36:38.654Z,14.91
2022-10-23T05:41:39.389Z,14.89
2022-10-23T05:46:38.620Z,14.83
2022-10-23T05:51:38.546Z,15.20
2022-10-23T05:56:38.554Z,15.21
2022-10-23T06:01:38.584Z,15.27
2022-10-23T06:06:38.380Z,15.54
2022-10-23T06:11:38.294Z,15.60
2022-10-23T06:16:38.203Z,15.84
2022-10-23T06:21:38.151Z,15.93
2022-10-23T06:26:38.171Z,15.90
2022-10-23T06:31:38.112Z,15.96
2022-10-23T06:36:38.078Z,16.01
2022-10-23T06:41:38.008Z,15.97
2022-10-23T06:46:37.929Z,16.33
2022-10-23T06:51:37.841Z,16.61
2022-10-23T06:56:37.787Z,16.75
2022-10-23T07:01:38.027Z,16.53
2022-10-23T07:06:37.766Z,16.42
2022-10-23T07:11:38.132Z,16.57
2022-10-23T07:16:37.539Z,16.42
2022-10-23T07:21:37.476Z,16.23
2022-10-23T07:26:37.530Z,16.33
2022-10-23T07:31:37.379Z,16.63
2022-10-23T07:36:37.306Z,16.68
2022-10-23T07:41:37.261Z,16.93
2022-10-23T07:46:37.396Z,17.11
2022-10-23T07:51:38.241Z,17.15
2022-10-23T07:56:37.099Z,16.89
2022-10-23T08:01:37.184Z,17.41
2022-10-23T08:06:36.973Z,17.66
2022-10-23T08:11:36.940Z,17.90
2022-10-23T08:16:36.880Z,18.08
2022-10-23T08:21:36.985Z,18.30
2022-10-23T08:26:36.771Z,18.51
2022-10-23T08:31:36.711Z,18.67
2022-10-23T08:36:36.638Z,19.04
2022-10-23T08:41:36.608Z,18.90
2022-10-23T08:46:36.639Z,19.16
2022-10-23T08:51:36.611Z,19.29
2022-10-23T08:56:36.442Z,19.26
2022-10-23T09:01:36.504Z,19.32
2022-10-23T09:06:36.334Z,19.54
2022-10-23T09:11:36.342Z,19.95
2022-10-23T09:16:36.394Z,20.10
2022-10-23T09:21:36.321Z,19.99
2022-10-23T09:26:36.125Z,20.16
2022-10-23T09:31:36.126Z,20.08
2022-10-23T09:36:35.994Z,20.14
2022-10-23T09:41:35.996Z,20.16
2022-10-23T09:46:35.926Z,20.32
2022-10-23T09:51:35.861Z,20.28
2022-10-23T09:56:35.840Z,20.66
2022-10-23T10:01:35.872Z,20.74
2022-10-23T10:06:35.788Z,21.03
2022-10-23T10:11:35.692Z,21.22
2022-10-23T10:16:36.049Z,20.92
2022-10-23T10:21:35.506Z,21.17
2022-10-23T10:26:35.447Z,21.07
2022-10-23T10:31:35.401Z,20.94
2022-10-23T10:36:35.455Z,21.03
2022-10-23T10:41:35.299Z,21.06
2022-10-23T10:46:35.333Z,21.27
2022-10-23T10:51:35.179Z,21.22
2022-10-23T10:56:35.154Z,21.17
2022-10-23T11:01:35.238Z,21.34
2022-10-23T11:06:35.072Z,21.16
2022-10-23T11:11:34.972Z,21.54
2022-10-23T11:16:35.061Z,21.88
2022-10-23T11:21:34.934Z,22.15
2022-10-23T11:26:34.907Z,22.21
2022-10-23T11:31:34.839Z,21.92
2022-10-23T11:36:34.717Z,21.80
2022-10-23T11:41:34.686Z,21.84
2022-10-23T11:46:34.749Z,21.77
2022-10-23T11:51:34.626Z,22.02
2022-10-23T11:56:34.596Z,22.03
2022-10-23T12:01:34.524Z,21.92
2022-10-23T12:06:34.432Z,21.62
2022-10-23T12:11:34.379Z,21.32
2022-10-23T12:16:34.427Z,21.25
2022-10-23T12:21:34.234Z,21.56
2022-10-23T12:26:34.290Z,21.71
2022-10-23T12:31:34.169Z,21.68
2022-10-23T12:36:34.071Z,21.75
2022-10-23T12:41:34.097Z,21.65
2022-10-23T12:46:33.981Z,21.84
2022-10-23T12:51:33.913Z,21.79
2022-10-23T12:56:35.244Z,21.88
2022-10-23T13:01:33.911Z,22.10
2022-10-23T13:06:33.763Z,21.74
2022-10-23T13:11:33.699Z,21.84
2022-10-23T13:16:33.820Z,22.10
2022-10-23T13:21:33.785Z,21.90
2022-10-23T13:26:35.747Z,21.52
2022-10-23T13:31:33.538Z,21.72
2022-10-23T13:36:33.469Z,21.72
2022-10-23T13:41:33.374Z,21.69
2022-10-23T13:46:33.363Z,21.80
2022-10-23T13:51:33.261Z,21.72
2022-10-23T13:56:41.388Z,21.71
2022-10-23T14:01:34.365Z,21.32
2022-10-23T14:06:33.237Z,21.54
2022-10-23T14:11:33.175Z,21.46
2022-10-23T14:16:33.050Z,21.50
2022-10-23T14:21:32.972Z,21.34
2022-10-23T14:26:32.932Z,21.44
2022-10-23T14:31:32.913Z,21.29
2022-10-23T14:36:43.182Z,21.31
2022-10-23T14:41:33.798Z,21.31
2022-10-23T14:46:32.655Z,21.06
2022-10-23T14:51:33.882Z,20.94
2022-10-23T14:56:32.637Z,20.95
2022-10-23T15:01:33.647Z,20.38
2022-10-23T15:06:32.606Z,20.03
2022-10-23T15:11:32.632Z,20.13
2022-10-23T15:16:32.499Z,20.06
2022-10-23T15:21:32.290Z,19.95
2022-10-23T15:26:32.408Z,19.58
2022-10-23T15:31:32.194Z,19.23
2022-10-23T15:36:33.273Z,19.23
2022-10-23T15:41:32.150Z,19.00
2022-10-23T15:46:32.021Z,18.73
2022-10-23T15:51:32.088Z,18.75
2022-10-23T15:56:31.931Z,18.80
2022-10-23T16:01:32.007Z,18.52
2022-10-23T16:06:31.820Z,18.25
2022-10-23T16:11:31.751Z,18.17
2022-10-23T16:16:31.775Z,18.03
2022-10-23T16:21:31.650Z,18.00
2022-10-23T16:26:32.665Z,18.03
2022-10-23T16:31:31.682Z,17.78
2022-10-23T16:36:31.484Z,17.66
2022-10-23T16:41:31.576Z,17.52
2022-10-23T16:46:31.373Z,17.51
2022-10-23T16:51:31.333Z,17.52
2022-10-23T16:56:31.376Z,17.51
2022-10-23T17:01:31.458Z,17.37
2022-10-23T17:06:31.149Z,17.36
2022-10-23T17:11:31.303Z,17.21
2022-10-23T17:16:31.053Z,17.34
2022-10-23T17:21:31.173Z,17.26
2022-10-23T17:26:30.927Z,17.23
2022-10-23T17:31:30.887Z,17.22
2022-10-23T17:36:30.791Z,17.25
2022-10-23T17:41:30.844Z,17.30
2022-10-23T17:46:30.753Z,17.38
2022-10-23T17:51:30.654Z,17.14
2022-10-23T17:56:30.877Z,17.19
2022-10-23T18:01:31.662Z,17.15
2022-10-23T18:06:30.634Z,17.12
2022-10-23T18:11:30.496Z,16.97
2022-10-23T18:16:30.460Z,17.16
2022-10-23T18:21:30.297Z,17.01
2022-10-23T18:26:32.374Z,17.14
2022-10-23T18:31:30.253Z,17.11
2022-10-23T18:36:30.187Z,17.15
2022-10-23T18:41:30.117Z,17.01
2022-10-23T18:46:30.045Z,17.01
2022-10-23T18:51:34.385Z,16.88
2022-10-23T18:56:30.005Z,16.85
2022-10-23T19:01:29.948Z,16.75
2022-10-23T19:06:29.807Z,16.68
2022-10-23T19:11:29.735Z,16.67
2022-10-23T19:16:29.683Z,16.66
2022-10-23T19:21:29.737Z,16.73
2022-10-23T19:26:29.617Z,16.67
2022-10-23T19:31:29.601Z,16.64
2022-10-23T19:36:31.513Z,16.61
2022-10-23T19:41:29.546Z,16.64
2022-10-23T19:46:29.385Z,16.73
2022-10-23T19:51:29.406Z,16.53
2022-10-23T19:56:29.248Z,16.39
2022-10-23T20:01:29.294Z,16.23
2022-10-23T20:06:29.225Z,16.21
2022-10-23T20:11:29.074Z,16.34
2022-10-23T20:16:29.034Z,16.56
2022-10-23T20:21:28.976Z,16.50
2022-10-23T20:26:28.929Z,16.63
2022-10-23T20:31:29.206Z,16.96
2022-10-23T20:36:28.888Z,16.96
2022-10-23T20:41:28.794Z,17.12
2022-10-23T20:46:28.804Z,17.38
2022-10-23T20:51:28.673Z,17.44
2022-10-23T20:56:28.604Z,17.43
2022-10-23T21:01:28.620Z,17.44
2022-10-23T21:06:31.507Z,17.30
2022-10-23T21:11:29.392Z,17.04
2022-10-23T21:16:28.674Z,16.86
2022-10-23T21:21:28.354Z,16.78
2022-10-23T21:26:28.224Z,16.79
2022-10-23T21:31:28.177Z,16.78
2022-10-23T21:36:28.165Z,16.73
2022-10-23T21:41:28.125Z,16.73
2022-10-23T21:46:28.070Z,16.58
2022-10-23T21:51:27.959Z,16.31
2022-10-23T21:56:27.892Z,16.27
2022-10-23T22:01:28.098Z,16.33
2022-10-23T22:06:27.921Z,16.38
2022-10-23T22:11:27.817Z,16.28
2022-10-23T22:16:27.678Z,16.14
2022-10-23T22:21:27.625Z,16.21
2022-10-23T22:26:27.591Z,16.15
2022-10-23T22:31:27.500Z,16.15
2022-10-23T22:36:27.480Z,16.20
2022-10-23T22:41:27.513Z,16.42
2022-10-23T22:46:28.363Z,16.48
2022-10-23T22:51:27.302Z,16.28
2022-10-23T22:56:27.292Z,16.35
2022-10-23T23:01:27.467Z,16.49
2022-10-23T23:06:28.340Z,16.39
2022-10-23T23:11:27.168Z,16.41
2022-10-23T23:16:27.063Z,16.34
2022-10-23T23:21:26.990Z,16.28
2022-10-23T23:26:26.947Z,16.41
2022-10-23T23:31:26.891Z,16.20
2022-10-23T23:36:26.947Z,16.28
2022-10-23T23:41:26.950Z,16.43
2022-10-23T23:46:26.780Z,16.41
2022-10-23T23:51:26.748Z,16.70
2022-10-23T23:56:26.682Z,16.91
